createdAt,value
2019-06-26T00:02:07.997Z,98.30
2019-06-26T00:04:38.821Z,98.20
2019-06-26T00:07:09.441Z,98.20
2019-06-26T00:09:40.808Z,98.00
2019-06-26T00:12:12.801Z,98.10
2019-06-26T00:14:43.381Z,98.10
2019-06-26T00:17:14.088Z,98.20
2019-06-26T00:19:45.651Z,98.80
2019-06-26T00:22:16.246Z,98.40
2019-06-26T00:24:47.017Z,98.50
2019-06-26T00:27:17.510Z,98.40
2019-06-26T00:29:48.419Z,98.30
2019-06-26T00:32:18.971Z,98.40
2019-06-26T00:34:49.687Z,98.50
2019-06-26T00:37:20.494Z,98.80
2019-06-26T00:39:51.278Z,98.90
2019-06-26T00:42:21.954Z,99.00
2019-06-26T00:44:52.835Z,99.00
2019-06-26T00:47:24.043Z,99.10
2019-06-26T00:49:54.728Z,99.00
2019-06-26T00:52:28.510Z,98.90
2019-06-26T00:54:59.178Z,98.80
2019-06-26T00:57:29.840Z,98.90
2019-06-26T01:00:03.674Z,99.10
2019-06-26T01:02:35.734Z,99.10
2019-06-26T01:05:08.745Z,99.20
2019-06-26T01:07:40.315Z,99.30
2019-06-26T01:10:12.722Z,99.30
2019-06-26T01:12:50.034Z,99.30
2019-06-26T01:15:21.024Z,99.70
2019-06-26T01:17:51.818Z,99.50
2019-06-26T01:20:22.454Z,99.60
2019-06-26T01:22:53.077Z,99.60
2019-06-26T01:25:23.929Z,99.70
2019-06-26T01:27:55.877Z,99.70
2019-06-26T01:30:27.840Z,99.80
2019-06-26T01:32:58.751Z,99.80
2019-06-26T01:35:33.264Z,99.80
2019-06-26T01:38:05.033Z,99.80
2019-06-26T01:40:35.766Z,99.80
2019-06-26T01:43:08.245Z,99.90
2019-06-26T01:45:39.187Z,99.90
2019-06-26T01:48:10.760Z,99.90
2019-06-26T01:50:41.559Z,99.90
2019-06-26T01:53:12.343Z,99.90
2019-06-26T01:55:42.972Z,99.90
2019-06-26T01:58:13.598Z,99.90
2019-06-26T02:00:44.258Z,99.90
2019-06-26T02:03:14.872Z,99.90
2019-06-26T02:05:45.747Z,99.90
2019-06-26T02:08:16.502Z,99.90
2019-06-26T02:10:49.005Z,99.90
2019-06-26T02:13:19.738Z,99.90
2019-06-26T02:15:50.373Z,99.90
2019-06-26T02:18:40.040Z,99.90
2019-06-26T02:21:10.579Z,99.90
2019-06-26T02:23:41.424Z,99.90
2019-06-26T02:26:12.127Z,99.90
2019-06-26T02:28:42.783Z,99.90
2019-06-26T02:31:13.336Z,99.90
2019-06-26T02:33:44.251Z,99.90
2019-06-26T02:36:15.047Z,99.90
2019-06-26T02:38:47.077Z,99.90
2019-06-26T02:41:17.868Z,99.90
2019-06-26T02:43:49.629Z,99.90
2019-06-26T02:46:20.202Z,99.90
2019-06-26T02:48:50.834Z,99.90
2019-06-26T02:51:21.513Z,99.90
2019-06-26T02:53:52.036Z,99.90
2019-06-26T02:56:22.660Z,99.90
2019-06-26T02:58:53.202Z,99.90
2019-06-26T03:01:23.868Z,99.90
2019-06-26T03:03:54.532Z,99.90
2019-06-26T03:06:25.329Z,99.90
2019-06-26T03:08:56.888Z,99.90
2019-06-26T03:11:27.631Z,99.90
2019-06-26T03:13:58.246Z,99.90
2019-06-26T03:16:31.434Z,99.90
2019-06-26T03:19:02.153Z,99.90
2019-06-26T03:21:33.665Z,99.90
2019-06-26T03:24:05.324Z,99.90
2019-06-26T03:26:35.934Z,99.90
2019-06-26T03:29:06.646Z,99.90
2019-06-26T03:31:37.231Z,99.90
2019-06-26T03:34:07.916Z,99.90
2019-06-26T03:36:38.553Z,99.90
2019-06-26T03:39:09.652Z,99.90
2019-06-26T03:41:40.247Z,99.90
2019-06-26T03:44:10.845Z,99.90
2019-06-26T03:46:41.517Z,99.90
2019-06-26T03:49:12.163Z,99.90
2019-06-26T03:51:43.889Z,99.90
2019-06-26T03:54:14.583Z,99.90
2019-06-26T03:56:45.369Z,99.90
2019-06-26T03:59:16.366Z,99.90
2019-06-26T04:01:47.167Z,99.90
2019-06-26T04:04:17.727Z,99.90
2019-06-26T04:06:48.491Z,99.90
2019-06-26T04:09:19.016Z,99.90
2019-06-26T04:11:49.645Z,99.90
2019-06-26T04:14:20.331Z,99.90
2019-06-26T04:16:50.902Z,99.90
2019-06-26T04:19:21.538Z,99.90
2019-06-26T04:21:52.098Z,99.90
2019-06-26T04:24:22.748Z,99.90
2019-06-26T04:26:53.327Z,99.90
2019-06-26T04:29:23.978Z,99.90
2019-06-26T04:31:54.524Z,99.90
2019-06-26T04:34:25.106Z,99.90
2019-06-26T04:36:55.586Z,99.90
2019-06-26T04:39:26.162Z,99.90
2019-06-26T04:41:56.749Z,99.90
2019-06-26T04:44:27.240Z,99.90
2019-06-26T04:46:57.933Z,99.90
2019-06-26T04:49:28.653Z,99.90
2019-06-26T04:51:59.350Z,99.90
2019-06-26T04:54:30.319Z,99.90
2019-06-26T04:57:01.019Z,99.90
2019-06-26T04:59:31.756Z,99.90
2019-06-26T05:02:02.313Z,99.90
2019-06-26T05:04:32.935Z,99.90
2019-06-26T05:07:03.606Z,99.90
2019-06-26T05:09:35.273Z,99.90
2019-06-26T05:12:05.932Z,99.90
2019-06-26T05:14:36.636Z,99.90
2019-06-26T05:17:07.230Z,99.90
2019-06-26T05:19:37.903Z,99.90
2019-06-26T05:22:08.610Z,99.90
2019-06-26T05:24:39.202Z,99.90
2019-06-26T05:27:09.777Z,99.90
2019-06-26T05:29:40.410Z,99.90
2019-06-26T05:32:10.958Z,99.90
2019-06-26T05:34:41.466Z,99.90
2019-06-26T05:37:12.057Z,99.90
2019-06-26T05:39:42.550Z,99.90
2019-06-26T05:42:13.166Z,99.90
2019-06-26T05:44:43.863Z,99.90
2019-06-26T05:47:14.494Z,99.90
2019-06-26T05:49:45.068Z,99.90
2019-06-26T05:52:16.718Z,99.90
2019-06-26T05:54:48.094Z,99.90
2019-06-26T05:57:18.746Z,99.90
2019-06-26T05:59:49.445Z,99.90
2019-06-26T06:02:20.102Z,99.90
2019-06-26T06:04:50.704Z,99.90
2019-06-26T06:07:21.309Z,99.90
2019-06-26T06:09:51.790Z,99.90
2019-06-26T06:12:23.373Z,99.90
2019-06-26T06:14:54.025Z,99.90
2019-06-26T06:17:24.709Z,99.90
2019-06-26T06:19:55.183Z,99.90
2019-06-26T06:22:27.552Z,99.90
2019-06-26T06:24:58.384Z,99.90
2019-06-26T06:27:29.819Z,99.90
2019-06-26T06:30:00.491Z,99.90
2019-06-26T06:32:31.085Z,99.90
2019-06-26T06:35:01.676Z,99.90
2019-06-26T06:37:32.374Z,99.90
2019-06-26T06:40:02.991Z,99.90
2019-06-26T06:42:33.609Z,99.90
2019-06-26T06:45:04.975Z,99.90
2019-06-26T06:47:35.687Z,99.90
2019-06-26T06:50:06.777Z,99.90
2019-06-26T06:52:37.335Z,99.90
2019-06-26T06:55:08.676Z,99.90
2019-06-26T06:57:39.410Z,99.90
2019-06-26T07:00:10.513Z,99.90
2019-06-26T07:02:41.147Z,99.90
2019-06-26T07:05:12.023Z,99.90
2019-06-26T07:07:42.691Z,99.90
2019-06-26T07:10:13.534Z,99.90
2019-06-26T07:12:44.289Z,99.90
2019-06-26T07:15:16.495Z,99.90
2019-06-26T07:17:47.327Z,99.90
2019-06-26T07:20:19.476Z,99.90
2019-06-26T07:22:50.131Z,99.90
2019-06-26T07:25:20.663Z,99.90
2019-06-26T07:27:51.339Z,99.90
2019-06-26T07:30:22.511Z,99.90
2019-06-26T07:32:53.304Z,99.90
2019-06-26T07:35:23.903Z,99.90
2019-06-26T07:37:54.715Z,99.90
2019-06-26T07:40:25.528Z,99.90
2019-06-26T07:42:56.479Z,99.90
2019-06-26T07:45:27.630Z,99.90
2019-06-26T07:47:58.214Z,99.90
2019-06-26T07:50:32.248Z,99.90
2019-06-26T07:53:01.140Z,99.90
2019-06-26T07:55:31.871Z,99.90
2019-06-26T07:58:02.442Z,99.90
2019-06-26T08:00:33.107Z,99.90
2019-06-26T08:03:04.605Z,99.90
2019-06-26T08:05:35.693Z,99.90
2019-06-26T08:10:48.789Z,99.90
2019-06-26T08:13:19.449Z,99.90
2019-06-26T08:15:50.150Z,99.90
2019-06-26T08:18:21.838Z,99.90
2019-06-26T08:21:10.837Z,99.90
2019-06-26T08:23:24.868Z,99.90
2019-06-26T08:25:55.526Z,99.90
2019-06-26T08:28:27.209Z,99.90
2019-06-26T08:30:57.942Z,99.90
2019-06-26T08:33:28.483Z,99.90
2019-06-26T08:35:59.279Z,99.90
2019-06-26T08:38:29.973Z,99.90
2019-06-26T08:41:00.756Z,99.90
2019-06-26T08:43:31.677Z,99.90
2019-06-26T08:46:02.319Z,99.90
2019-06-26T08:48:39.464Z,99.90
2019-06-26T08:51:05.800Z,99.90
2019-06-26T08:53:36.685Z,99.90
2019-06-26T08:56:07.436Z,99.90
2019-06-26T08:58:38.196Z,99.90
2019-06-26T09:01:09.227Z,99.90
2019-06-26T09:03:42.105Z,99.90
2019-06-26T09:06:12.631Z,99.90
2019-06-26T09:08:44.434Z,99.90
2019-06-26T09:11:15.104Z,99.90
2019-06-26T09:13:46.361Z,99.90
2019-06-26T09:16:17.437Z,99.90
2019-06-26T09:18:48.453Z,99.90
2019-06-26T09:21:19.154Z,99.90
2019-06-26T09:23:51.931Z,99.90
2019-06-26T09:26:22.709Z,99.90
2019-06-26T09:28:53.865Z,99.90
2019-06-26T09:31:24.453Z,99.90
2019-06-26T09:33:55.043Z,99.80
2019-06-26T09:36:25.794Z,99.70
2019-06-26T09:38:57.983Z,99.70
2019-06-26T09:41:29.046Z,99.70
2019-06-26T09:43:59.733Z,99.90
2019-06-26T09:46:30.302Z,99.80
2019-06-26T09:49:01.117Z,99.50
2019-06-26T09:51:31.729Z,99.60
2019-06-26T09:54:02.419Z,99.20
2019-06-26T09:56:33.215Z,99.30
2019-06-26T09:59:15.975Z,99.10
2019-06-26T10:01:47.060Z,98.80
2019-06-26T10:04:18.037Z,98.50
2019-06-26T10:06:48.680Z,98.50
2019-06-26T10:09:19.333Z,98.50
2019-06-26T10:11:49.947Z,98.30
2019-06-26T10:14:20.627Z,98.20
2019-06-26T10:16:51.343Z,98.00
2019-06-26T10:19:21.992Z,97.80
2019-06-26T10:21:52.636Z,97.50
2019-06-26T10:24:23.515Z,97.40
2019-06-26T10:26:54.166Z,97.30
2019-06-26T10:29:24.859Z,97.00
2019-06-26T10:31:55.593Z,97.00
2019-06-26T10:34:26.273Z,96.80
2019-06-26T10:36:56.927Z,96.90
2019-06-26T10:39:27.642Z,96.50
2019-06-26T10:41:58.316Z,96.90
2019-06-26T10:44:29.139Z,96.50
2019-06-26T10:46:59.863Z,96.40
2019-06-26T10:49:30.568Z,96.10
2019-06-26T10:52:01.155Z,95.70
2019-06-26T10:54:31.790Z,95.40
2019-06-26T10:57:02.446Z,95.20
2019-06-26T10:59:33.220Z,95.30
2019-06-26T11:02:03.898Z,95.30
2019-06-26T11:04:34.425Z,95.20
2019-06-26T11:07:05.186Z,95.20
2019-06-26T11:09:35.802Z,95.00
2019-06-26T11:12:06.536Z,94.90
2019-06-26T11:14:37.959Z,94.90
2019-06-26T11:17:08.647Z,95.00
2019-06-26T11:19:43.653Z,95.20
2019-06-26T11:22:11.622Z,95.00
2019-06-26T11:24:42.276Z,94.90
2019-06-26T11:27:13.115Z,94.70
2019-06-26T11:29:44.990Z,94.60
2019-06-26T11:32:15.569Z,94.60
2019-06-26T11:34:46.169Z,94.70
2019-06-26T11:37:16.786Z,94.80
2019-06-26T11:39:47.458Z,94.50
2019-06-26T11:42:18.077Z,94.50
2019-06-26T11:44:48.677Z,94.20
2019-06-26T11:47:19.392Z,93.70
2019-06-26T11:49:59.313Z,93.30
2019-06-26T11:52:22.281Z,93.10
2019-06-26T11:55:02.412Z,93.20
2019-06-26T11:57:25.721Z,92.80
2019-06-26T11:59:56.365Z,92.40
2019-06-26T12:02:26.933Z,92.10
2019-06-26T12:05:01.519Z,91.70
2019-06-26T12:07:32.275Z,92.00
2019-06-26T12:10:03.042Z,91.60
2019-06-26T12:12:34.753Z,91.40
2019-06-26T12:15:06.824Z,91.50
2019-06-26T12:17:37.464Z,90.80
2019-06-26T12:20:18.531Z,89.60
2019-06-26T12:22:40.520Z,88.10
2019-06-26T12:25:11.246Z,86.80
2019-06-26T12:27:41.939Z,86.40
2019-06-26T12:30:13.944Z,84.90
2019-06-26T12:33:01.677Z,84.40
2019-06-26T12:35:17.131Z,84.00
2019-06-26T12:37:47.889Z,83.90
2019-06-26T12:40:18.985Z,83.50
2019-06-26T12:42:49.539Z,83.20
2019-06-26T12:45:20.223Z,83.60
2019-06-26T12:47:50.798Z,83.20
2019-06-26T12:50:34.677Z,82.30
2019-06-26T12:53:01.509Z,81.70
2019-06-26T12:55:33.251Z,81.90
2019-06-26T12:58:13.138Z,81.20
2019-06-26T13:00:36.735Z,80.70
2019-06-26T13:03:07.211Z,79.10
2019-06-26T13:05:37.787Z,77.70
2019-06-26T13:08:08.380Z,75.50
2019-06-26T13:10:48.848Z,74.60
2019-06-26T13:13:11.905Z,73.40
2019-06-26T13:15:42.639Z,71.20
2019-06-26T13:18:13.152Z,69.10
2019-06-26T13:20:52.978Z,67.10
2019-06-26T13:23:15.940Z,66.30
2019-06-26T13:25:46.837Z,65.90
2019-06-26T13:28:17.313Z,64.70
2019-06-26T13:30:48.033Z,63.20
2019-06-26T13:33:19.036Z,62.70
2019-06-26T13:35:49.695Z,64.00
2019-06-26T13:38:20.234Z,63.50
2019-06-26T13:40:50.830Z,61.40
2019-06-26T13:43:21.510Z,60.60
2019-06-26T13:45:51.962Z,60.60
2019-06-26T13:48:22.597Z,60.70
2019-06-26T13:51:08.285Z,62.50
2019-06-26T13:53:25.376Z,63.20
2019-06-26T13:55:55.887Z,63.70
2019-06-26T13:58:26.501Z,63.20
2019-06-26T14:00:57.049Z,63.90
2019-06-26T14:03:27.686Z,63.90
2019-06-26T14:05:58.214Z,63.70
2019-06-26T14:08:31.982Z,63.40
2019-06-26T14:11:00.974Z,62.30
2019-06-26T14:13:31.573Z,62.00
2019-06-26T14:16:02.135Z,62.10
2019-06-26T14:18:32.817Z,62.50
2019-06-26T14:21:03.303Z,60.50
2019-06-26T14:23:37.644Z,60.20
2019-06-26T14:26:05.886Z,58.80
2019-06-26T14:28:36.438Z,57.30
2019-06-26T14:31:06.985Z,56.40
2019-06-26T14:33:37.603Z,55.80
2019-06-26T14:36:08.167Z,55.60
2019-06-26T14:38:40.453Z,55.20
2019-06-26T14:41:11.036Z,53.90
2019-06-26T14:43:41.725Z,53.30
2019-06-26T14:46:12.237Z,52.20
2019-06-26T14:48:42.773Z,52.20
2019-06-26T14:51:13.341Z,52.20
2019-06-26T14:53:44.022Z,50.90
2019-06-26T14:56:15.927Z,49.90
2019-06-26T14:58:46.561Z,49.20
2019-06-26T15:01:17.028Z,48.70
2019-06-26T15:03:47.871Z,48.80
2019-06-26T15:06:18.579Z,48.90
2019-06-26T15:08:49.360Z,48.90
2019-06-26T15:11:19.817Z,48.90
2019-06-26T15:13:50.460Z,49.10
2019-06-26T15:16:20.976Z,48.70
2019-06-26T15:18:51.547Z,48.90
2019-06-26T15:21:22.036Z,49.30
2019-06-26T15:23:52.597Z,49.20
2019-06-26T15:26:23.098Z,49.90
2019-06-26T15:28:53.665Z,50.20
2019-06-26T15:31:24.208Z,50.10
2019-06-26T15:33:54.803Z,50.60
2019-06-26T15:36:25.458Z,51.30
2019-06-26T15:38:59.058Z,51.50
2019-06-26T15:41:28.086Z,52.10
2019-06-26T15:43:58.633Z,52.80
2019-06-26T15:46:29.333Z,54.30
2019-06-26T15:48:59.939Z,54.70
2019-06-26T15:51:30.527Z,55.10
2019-06-26T15:54:01.083Z,55.30
2019-06-26T15:56:32.753Z,55.80
2019-06-26T15:59:03.243Z,56.40
2019-06-26T16:01:33.956Z,57.50
2019-06-26T16:04:04.720Z,58.20
2019-06-26T16:06:35.285Z,58.20
2019-06-26T16:09:06.919Z,58.80
2019-06-26T16:11:37.481Z,58.50
2019-06-26T16:14:08.046Z,58.90
2019-06-26T16:16:40.453Z,60.00
2019-06-26T16:19:14.218Z,60.60
2019-06-26T16:21:45.063Z,61.30
2019-06-26T16:24:15.857Z,61.20
2019-06-26T16:26:46.571Z,61.90
2019-06-26T16:29:17.329Z,62.40
2019-06-26T16:31:48.339Z,63.20
2019-06-26T16:34:19.071Z,63.40
2019-06-26T16:36:49.650Z,64.00
2019-06-26T16:39:22.007Z,64.00
2019-06-26T16:41:52.626Z,64.90
2019-06-26T16:44:24.359Z,65.90
2019-06-26T16:46:54.895Z,66.60
2019-06-26T16:49:25.514Z,67.40
2019-06-26T16:51:56.086Z,68.10
2019-06-26T16:54:26.705Z,69.10
2019-06-26T16:56:57.455Z,70.30
2019-06-26T16:59:27.949Z,70.10
2019-06-26T17:01:58.554Z,70.60
2019-06-26T17:04:29.074Z,71.10
2019-06-26T17:07:06.349Z,71.60
2019-06-26T17:09:36.897Z,71.80
2019-06-26T17:12:07.547Z,72.20
2019-06-26T17:14:38.159Z,72.70
2019-06-26T17:17:09.017Z,73.10
2019-06-26T17:19:39.638Z,73.60
2019-06-26T17:22:10.301Z,73.70
2019-06-26T17:24:41.003Z,75.00
2019-06-26T17:27:11.627Z,75.40
2019-06-26T17:29:42.214Z,75.90
2019-06-26T17:32:12.836Z,76.40
2019-06-26T17:34:43.347Z,76.30
2019-06-26T17:37:13.961Z,75.80
2019-06-26T17:39:44.675Z,76.80
2019-06-26T17:42:18.862Z,77.10
2019-06-26T17:44:50.451Z,77.50
2019-06-26T17:47:21.021Z,78.60
2019-06-26T17:49:51.547Z,78.40
2019-06-26T17:52:22.143Z,78.60
2019-06-26T17:54:52.821Z,79.10
2019-06-26T17:57:23.324Z,79.40
2019-06-26T17:59:56.969Z,79.80
2019-06-26T18:02:27.559Z,80.30
2019-06-26T18:04:58.110Z,80.80
2019-06-26T18:07:28.675Z,81.20
2019-06-26T18:09:59.376Z,81.30
2019-06-26T18:12:29.973Z,82.10
2019-06-26T18:15:00.467Z,82.80
2019-06-26T18:17:31.025Z,82.70
2019-06-26T18:20:01.539Z,82.20
2019-06-26T18:22:32.078Z,81.40
2019-06-26T18:25:02.691Z,80.90
2019-06-26T18:27:33.340Z,80.90
2019-06-26T18:30:04.101Z,80.20
2019-06-26T18:32:34.805Z,79.80
2019-06-26T18:35:05.603Z,79.60
2019-06-26T18:37:36.143Z,79.90
2019-06-26T18:40:08.051Z,80.10
2019-06-26T18:42:38.681Z,80.60
2019-06-26T18:45:09.499Z,80.80
2019-06-26T18:47:40.198Z,80.60
2019-06-26T18:50:10.878Z,81.40
2019-06-26T18:53:00.507Z,81.90
2019-06-26T18:55:31.110Z,81.50
2019-06-26T18:58:01.610Z,82.00
2019-06-26T19:00:32.338Z,82.30
2019-06-26T19:03:02.812Z,82.40
2019-06-26T19:05:33.559Z,82.30
2019-06-26T19:08:04.194Z,82.10
2019-06-26T19:10:34.760Z,82.50
2019-06-26T19:13:05.498Z,82.50
2019-06-26T19:15:36.050Z,83.00
2019-06-26T19:18:06.660Z,82.50
2019-06-26T19:20:37.246Z,82.80
2019-06-26T19:23:07.981Z,83.00
2019-06-26T19:25:38.721Z,83.40
2019-06-26T19:28:09.393Z,83.80
2019-06-26T19:30:40.075Z,84.10
2019-06-26T19:33:10.731Z,84.00
2019-06-26T19:35:41.518Z,84.20
2019-06-26T19:38:12.151Z,84.40
2019-06-26T19:40:43.176Z,84.80
2019-06-26T19:43:13.804Z,85.00
2019-06-26T19:45:44.489Z,85.30
2019-06-26T19:48:16.168Z,85.10
2019-06-26T19:50:46.802Z,85.20
2019-06-26T19:53:17.354Z,85.20
2019-06-26T19:56:01.586Z,85.10
2019-06-26T19:58:32.272Z,85.40
2019-06-26T20:01:02.817Z,86.10
2019-06-26T20:03:33.648Z,85.90
2019-06-26T20:06:04.495Z,86.00
2019-06-26T20:08:48.613Z,86.20
2019-06-26T20:11:07.387Z,85.80
2019-06-26T20:13:38.041Z,85.80
2019-06-26T20:16:08.710Z,86.20
2019-06-26T20:18:39.341Z,86.80
2019-06-26T20:21:09.914Z,86.90
2019-06-26T20:23:40.492Z,87.20
2019-06-26T20:26:11.016Z,87.50
2019-06-26T20:28:41.567Z,87.40
2019-06-26T20:31:12.241Z,87.90
2019-06-26T20:33:42.771Z,88.00
2019-06-26T20:36:13.445Z,88.20
2019-06-26T20:38:43.952Z,87.90
2019-06-26T20:41:14.532Z,88.10
2019-06-26T20:43:45.247Z,88.20
2019-06-26T20:46:17.061Z,88.70
2019-06-26T20:48:47.769Z,88.70
2019-06-26T20:51:20.770Z,88.80
2019-06-26T20:53:50.516Z,89.00
2019-06-26T20:56:21.170Z,89.20
2019-06-26T20:58:51.953Z,89.00
2019-06-26T21:01:22.631Z,89.50
2019-06-26T21:03:53.249Z,90.00
2019-06-26T21:06:23.844Z,89.80
2019-06-26T21:08:54.444Z,90.00
2019-06-26T21:11:25.055Z,90.10
2019-06-26T21:13:55.678Z,90.30
2019-06-26T21:16:26.464Z,90.20
2019-06-26T21:19:03.257Z,90.50
2019-06-26T21:21:34.063Z,90.50
2019-06-26T21:24:04.644Z,91.20
2019-06-26T21:26:35.393Z,90.50
2019-06-26T21:29:05.941Z,90.70
2019-06-26T21:31:36.570Z,90.70
2019-06-26T21:34:07.111Z,90.80
2019-06-26T21:36:37.688Z,90.80
2019-06-26T21:39:08.625Z,91.00
2019-06-26T21:41:39.227Z,91.20
2019-06-26T21:44:09.766Z,91.50
2019-06-26T21:46:40.546Z,91.60
2019-06-26T21:49:11.323Z,91.40
2019-06-26T21:51:41.813Z,91.50
2019-06-26T21:54:12.628Z,91.60
2019-06-26T21:57:03.413Z,91.70
2019-06-26T21:59:52.567Z,91.70
2019-06-26T22:02:43.374Z,91.70
2019-06-26T22:05:17.240Z,91.80
2019-06-26T22:08:02.085Z,91.90
2019-06-26T22:10:51.404Z,92.10
2019-06-26T22:13:23.684Z,92.10
2019-06-26T22:15:54.868Z,92.30
2019-06-26T22:18:26.374Z,92.20
2019-06-26T22:20:56.929Z,92.30
2019-06-26T22:23:27.476Z,92.30
2019-06-26T22:25:58.167Z,92.30
2019-06-26T22:28:28.801Z,92.40
2019-06-26T22:30:59.570Z,92.50
2019-06-26T22:33:30.099Z,92.70
2019-06-26T22:36:00.752Z,92.90
2019-06-26T22:38:31.588Z,92.90
2019-06-26T22:41:02.208Z,93.00
2019-06-26T22:43:32.980Z,93.10
2019-06-26T22:46:03.630Z,93.20
2019-06-26T22:48:34.403Z,93.30
2019-06-26T22:51:05.010Z,93.60
2019-06-26T22:53:35.596Z,93.70
2019-06-26T22:56:08.020Z,93.70
2019-06-26T22:58:38.652Z,93.60
2019-06-26T23:01:10.361Z,93.70
2019-06-26T23:03:40.968Z,93.70
2019-06-26T23:06:11.605Z,93.70
2019-06-26T23:08:42.119Z,94.00
2019-06-26T23:11:12.770Z,94.00
2019-06-26T23:13:43.352Z,94.00
2019-06-26T23:16:14.028Z,94.10
2019-06-26T23:18:44.713Z,94.20
2019-06-26T23:21:15.337Z,94.30
2019-06-26T23:23:46.057Z,94.10
2019-06-26T23:26:23.867Z,94.20
2019-06-26T23:28:48.986Z,94.30
2019-06-26T23:31:19.584Z,94.40
2019-06-26T23:33:50.362Z,94.40
2019-06-26T23:36:21.028Z,94.50
2019-06-26T23:38:51.580Z,94.50
2019-06-26T23:41:22.323Z,94.40
2019-06-26T23:43:52.883Z,94.30
2019-06-26T23:46:23.561Z,94.40
2019-06-26T23:48:54.147Z,94.50
2019-06-26T23:51:25.835Z,94.60
2019-06-26T23:53:56.365Z,94.70
2019-06-26T23:56:40.007Z,94.80
2019-06-26T23:58:59.176Z,94.90
